createdAt,value
2023-04-15T00:00:58.557Z,10.40
2023-04-15T00:03:29.441Z,12.13
2023-04-15T00:06:19.394Z,13.57
2023-04-15T00:11:40.512Z,13.32
2023-04-15T00:14:13.594Z,13.13
2023-04-15T00:16:50.288Z,11.65
2023-04-15T00:19:21.358Z,13.40
2023-04-15T00:21:57.679Z,13.20
2023-04-15T00:28:15.956Z,19.80
2023-04-15T00:30:45.081Z,14.73
2023-04-15T00:33:13.670Z,12.35
2023-04-15T00:35:42.480Z,9.65
2023-04-15T00:38:09.848Z,13.40
2023-04-15T00:40:37.535Z,15.95
2023-04-15T00:43:04.497Z,16.23
2023-04-15T00:45:31.934Z,10.32
2023-04-15T00:47:59.311Z,13.27
2023-04-15T00:50:26.430Z,13.75
2023-04-15T00:52:53.419Z,15.13
2023-04-15T00:55:24.276Z,13.48
2023-04-15T00:58:16.922Z,10.88
2023-04-15T01:01:09.702Z,13.10
2023-04-15T01:03:44.966Z,12.07
2023-04-15T01:06:16.009Z,13.68
2023-04-15T01:08:48.863Z,12.52
2023-04-15T01:11:18.500Z,13.20
2023-04-15T01:13:46.654Z,16.20
2023-04-15T01:16:33.117Z,11.27
2023-04-15T01:19:02.445Z,12.02
2023-04-15T01:21:47.314Z,12.07
2023-04-15T01:24:21.104Z,11.70
2023-04-15T01:26:51.246Z,14.90
2023-04-15T01:29:21.107Z,12.70
2023-04-15T01:31:56.447Z,14.45
2023-04-15T01:34:31.835Z,12.13
2023-04-15T01:37:04.516Z,17.10
2023-04-15T01:39:40.668Z,15.25
2023-04-15T01:42:11.822Z,16.67
2023-04-15T01:44:41.846Z,16.08
2023-04-15T01:47:11.416Z,14.70
2023-04-15T01:49:47.735Z,15.20
2023-04-15T01:52:15.873Z,13.80
2023-04-15T01:54:43.347Z,17.27
2023-04-15T01:57:10.895Z,15.70
2023-04-15T01:59:38.350Z,18.23
2023-04-15T02:02:05.762Z,14.88
2023-04-15T02:04:34.414Z,17.48
2023-04-15T02:07:01.852Z,14.00
2023-04-15T02:09:31.143Z,15.77
2023-04-15T02:11:58.561Z,18.52
2023-04-15T02:14:28.900Z,16.42
2023-04-15T02:16:56.757Z,14.73
2023-04-15T02:19:24.238Z,14.15
2023-04-15T02:21:51.712Z,12.85
2023-04-15T02:24:19.332Z,17.58
2023-04-15T02:26:46.835Z,16.38
2023-04-15T02:29:14.253Z,16.90
2023-04-15T02:31:42.353Z,16.27
2023-04-15T02:34:09.885Z,16.25
2023-04-15T02:36:37.393Z,14.10
2023-04-15T02:39:04.871Z,17.85
2023-04-15T02:41:32.234Z,14.68
2023-04-15T02:43:59.859Z,17.25
2023-04-15T02:46:27.643Z,16.60
2023-04-15T02:48:55.180Z,16.45
2023-04-15T02:51:25.408Z,15.82
2023-04-15T02:53:58.893Z,16.85
2023-04-15T03:02:27.669Z,13.40
2023-04-15T03:05:10.972Z,18.35
2023-04-15T03:10:19.504Z,16.00
2023-04-15T03:15:36.311Z,17.40
2023-04-15T03:18:04.605Z,15.75
2023-04-15T03:20:34.908Z,16.40
2023-04-15T03:23:09.667Z,16.98
2023-04-15T03:25:37.569Z,15.50
2023-04-15T03:28:05.506Z,17.58
2023-04-15T03:30:32.986Z,17.15
2023-04-15T03:33:11.168Z,17.23
2023-04-15T03:35:41.351Z,15.45
2023-04-15T03:38:08.978Z,13.52
2023-04-15T03:40:36.437Z,16.65
2023-04-15T03:43:03.938Z,16.60
2023-04-15T03:45:32.327Z,15.73
2023-04-15T03:50:43.666Z,14.00
2023-04-15T03:53:30.617Z,16.10
2023-04-15T03:55:59.833Z,17.52
2023-04-15T03:58:27.469Z,18.65
2023-04-15T04:00:56.016Z,16.75
2023-04-15T04:03:31.622Z,17.33
2023-04-15T04:06:12.061Z,13.95
2023-04-15T04:08:46.727Z,13.15
2023-04-15T04:11:24.025Z,12.85
2023-04-15T04:13:51.414Z,15.93
2023-04-15T04:16:19.299Z,18.35
2023-04-15T04:18:46.940Z,16.05
2023-04-15T04:21:14.449Z,14.13
2023-04-15T04:23:41.896Z,15.02
2023-04-15T04:26:09.302Z,12.93
2023-04-15T04:28:37.198Z,16.23
2023-04-15T04:31:04.630Z,17.10
2023-04-15T04:33:32.363Z,17.55
2023-04-15T04:35:59.794Z,13.95
2023-04-15T04:38:28.069Z,17.30
2023-04-15T04:40:55.489Z,13.38
2023-04-15T04:43:22.887Z,14.48
2023-04-15T04:45:50.693Z,18.08
2023-04-15T04:48:21.306Z,18.23
2023-04-15T04:50:48.874Z,16.27
2023-04-15T04:53:16.624Z,13.95
2023-04-15T04:55:43.937Z,18.08
2023-04-15T04:58:13.426Z,17.25
2023-04-15T05:00:42.494Z,21.38
2023-04-15T05:03:10.073Z,16.83
2023-04-15T05:05:39.536Z,18.27
2023-04-15T05:08:07.416Z,15.18
2023-04-15T05:10:35.935Z,17.92
2023-04-15T05:13:03.434Z,18.30
2023-04-15T05:15:35.234Z,16.55
2023-04-15T05:18:02.967Z,15.52
2023-04-15T05:20:30.630Z,17.05
2023-04-15T05:22:58.015Z,14.80
2023-04-15T05:25:25.476Z,16.42
2023-04-15T05:27:52.844Z,15.90
2023-04-15T05:30:22.675Z,15.57
2023-04-15T05:32:50.462Z,17.63
2023-04-15T05:35:18.103Z,16.30
2023-04-15T05:37:48.420Z,16.02
2023-04-15T05:40:17.374Z,16.83
2023-04-15T05:45:38.083Z,17.83
2023-04-15T05:48:05.483Z,18.27
2023-04-15T05:50:33.348Z,14.95
2023-04-15T05:53:03.739Z,16.17
2023-04-15T05:55:46.813Z,14.68
2023-04-15T05:58:14.239Z,14.93
2023-04-15T06:00:45.293Z,13.95
2023-04-15T06:03:13.410Z,15.70
2023-04-15T06:05:41.202Z,15.70
2023-04-15T06:08:08.689Z,15.43
2023-04-15T06:10:37.147Z,16.83
2023-04-15T06:13:08.330Z,19.45
2023-04-15T06:15:36.133Z,15.85
2023-04-15T06:18:03.989Z,15.82
2023-04-15T06:20:31.387Z,14.40
2023-04-15T06:23:01.957Z,14.93
2023-04-15T06:25:29.381Z,13.93
2023-04-15T06:27:56.858Z,12.82
2023-04-15T06:30:26.601Z,11.55
2023-04-15T06:32:54.147Z,13.55
2023-04-15T06:35:22.184Z,12.55
2023-04-15T06:37:49.870Z,14.82
2023-04-15T06:40:17.699Z,12.10
2023-04-15T06:42:45.259Z,10.73
2023-04-15T06:45:13.533Z,10.50
2023-04-15T06:47:42.278Z,11.23
2023-04-15T06:50:10.628Z,12.15
2023-04-15T06:52:38.458Z,12.18
2023-04-15T06:55:08.212Z,11.45
2023-04-15T06:57:36.348Z,8.60
2023-04-15T07:00:06.038Z,9.55
2023-04-15T07:02:34.018Z,12.07
2023-04-15T07:05:03.254Z,10.30
2023-04-15T07:07:35.731Z,9.77
2023-04-15T07:10:04.873Z,9.05
2023-04-15T07:12:32.503Z,10.30
2023-04-15T07:15:00.675Z,8.95
2023-04-15T07:17:32.636Z,10.02
2023-04-15T07:20:06.711Z,8.20
2023-04-15T07:22:44.095Z,8.88
2023-04-15T07:25:12.185Z,8.82
2023-04-15T07:27:42.430Z,8.25
2023-04-15T07:30:11.551Z,10.38
2023-04-15T07:32:47.073Z,8.50
2023-04-15T07:35:18.264Z,10.02
2023-04-15T07:38:05.817Z,9.43
2023-04-15T07:40:33.489Z,8.32
2023-04-15T07:43:08.290Z,9.95
2023-04-15T07:45:36.374Z,10.45
2023-04-15T07:48:04.294Z,8.10
2023-04-15T07:50:46.763Z,7.78
2023-04-15T07:53:16.898Z,7.72
2023-04-15T07:55:45.216Z,8.02
2023-04-15T07:58:13.968Z,8.55
2023-04-15T08:00:42.137Z,8.00
2023-04-15T08:03:11.045Z,7.88
2023-04-15T08:05:38.591Z,8.88
2023-04-15T08:08:07.762Z,8.65
2023-04-15T08:10:36.105Z,8.07
2023-04-15T08:13:06.106Z,7.47
2023-04-15T08:15:34.037Z,9.68
2023-04-15T08:18:01.539Z,8.68
2023-04-15T08:20:28.904Z,9.18
2023-04-15T08:22:56.444Z,9.25
2023-04-15T08:25:23.660Z,7.32
2023-04-15T08:27:51.405Z,8.27
2023-04-15T08:30:19.543Z,7.60
2023-04-15T08:32:47.621Z,8.75
2023-04-15T08:35:15.592Z,8.70
2023-04-15T08:37:45.136Z,9.85
2023-04-15T08:40:14.390Z,8.65
2023-04-15T08:42:48.553Z,10.30
2023-04-15T08:45:16.214Z,10.30
2023-04-15T08:47:44.041Z,10.30
2023-04-15T08:50:11.870Z,11.85
2023-04-15T08:52:39.821Z,11.00
2023-04-15T08:55:09.749Z,12.73
2023-04-15T08:57:37.748Z,10.27
2023-04-15T09:00:05.954Z,14.23
2023-04-15T09:02:33.501Z,12.00
2023-04-15T09:05:05.542Z,11.10
2023-04-15T09:07:40.182Z,11.85
2023-04-15T09:10:08.658Z,10.15
2023-04-15T09:12:38.249Z,10.13
2023-04-15T09:15:14.904Z,10.25
2023-04-15T09:18:00.684Z,11.18
2023-04-15T09:20:42.756Z,9.55
2023-04-15T09:23:17.778Z,9.93
2023-04-15T09:25:47.361Z,9.35
2023-04-15T09:28:36.588Z,8.48
2023-04-15T09:31:29.875Z,10.27
2023-04-15T09:36:29.898Z,10.70
2023-04-15T09:39:01.087Z,7.18
2023-04-15T09:41:28.675Z,9.75
2023-04-15T09:43:56.029Z,5.10
2023-04-15T09:46:51.650Z,6.47
2023-04-15T09:49:21.222Z,8.20
2023-04-15T09:52:04.078Z,7.88
2023-04-15T09:54:38.141Z,6.13
2023-04-15T09:57:20.627Z,5.60
2023-04-15T09:59:48.034Z,7.78
2023-04-15T10:02:24.479Z,8.00
2023-04-15T10:04:54.801Z,8.32
2023-04-15T10:07:25.199Z,7.20
2023-04-15T10:09:55.361Z,7.90
2023-04-15T10:12:32.594Z,9.23
2023-04-15T10:17:57.659Z,7.07
2023-04-15T10:20:25.196Z,7.05
2023-04-15T10:22:54.262Z,7.47
2023-04-15T10:25:22.672Z,7.55
2023-04-15T10:27:58.361Z,8.13
2023-04-15T10:30:26.196Z,6.80
2023-04-15T10:32:55.001Z,6.57
2023-04-15T10:35:23.103Z,5.95
2023-04-15T10:37:51.809Z,5.22
2023-04-15T10:40:35.782Z,5.75
2023-04-15T10:45:49.528Z,5.00
2023-04-15T10:48:18.922Z,8.38
2023-04-15T10:50:59.402Z,6.18
2023-04-15T10:53:37.932Z,10.60
2023-04-15T10:56:07.337Z,9.50
2023-04-15T11:02:26.007Z,7.22
2023-04-15T11:05:01.853Z,7.00
2023-04-15T11:07:49.046Z,5.07
2023-04-15T11:10:59.824Z,4.47
2023-04-15T11:13:31.273Z,4.15
2023-04-15T11:16:02.678Z,4.07
2023-04-15T11:18:33.168Z,3.58
2023-04-15T11:21:08.631Z,2.53
2023-04-15T11:23:49.477Z,3.25
2023-04-15T11:26:22.846Z,6.32
2023-04-15T11:28:50.690Z,3.83
2023-04-15T11:31:23.468Z,4.50
2023-04-15T11:34:03.470Z,6.00
2023-04-15T11:36:34.511Z,4.80
2023-04-15T11:39:09.561Z,5.13
2023-04-15T11:41:38.087Z,7.28
2023-04-15T11:44:18.170Z,5.05
2023-04-15T11:46:45.787Z,6.97
2023-04-15T11:49:25.696Z,4.88
2023-04-15T11:51:55.689Z,6.43
2023-04-15T11:54:25.362Z,6.43
2023-04-15T11:56:54.646Z,7.13
2023-04-15T11:59:22.317Z,6.35
2023-04-15T12:01:52.449Z,6.57
2023-04-15T12:04:25.223Z,6.00
2023-04-15T12:06:53.380Z,5.72
2023-04-15T12:09:21.213Z,5.82
2023-04-15T12:11:53.858Z,8.02
2023-04-15T12:14:29.606Z,6.82
2023-04-15T12:17:06.666Z,5.95
2023-04-15T12:19:40.302Z,7.55
2023-04-15T12:22:13.324Z,8.20
2023-04-15T12:24:44.752Z,5.80
2023-04-15T12:27:14.107Z,7.93
2023-04-15T12:29:45.790Z,5.97
2023-04-15T12:32:23.955Z,5.85
2023-04-15T12:37:52.956Z,5.13
2023-04-15T12:40:31.593Z,6.28
2023-04-15T12:43:25.915Z,8.10
2023-04-15T12:46:00.143Z,4.80
2023-04-15T12:48:27.650Z,7.28
2023-04-15T12:50:55.066Z,5.97
2023-04-15T12:53:22.541Z,6.82
2023-04-15T12:55:50.179Z,5.18
2023-04-15T12:58:17.599Z,4.75
2023-04-15T13:00:45.188Z,6.28
2023-04-15T13:03:12.672Z,6.15
2023-04-15T13:05:40.227Z,4.15
2023-04-15T13:08:09.939Z,4.97
2023-04-15T13:10:37.833Z,2.58
2023-04-15T13:13:05.914Z,3.83
2023-04-15T13:15:33.417Z,3.53
2023-04-15T13:18:01.182Z,3.72
2023-04-15T13:20:34.170Z,5.45
2023-04-15T13:23:01.689Z,4.50
2023-04-15T13:25:29.057Z,5.50
2023-04-15T13:27:57.753Z,3.05
2023-04-15T13:30:27.812Z,5.53
2023-04-15T13:32:55.250Z,4.35
2023-04-15T13:35:22.690Z,3.45
2023-04-15T13:37:50.086Z,3.58
2023-04-15T13:40:17.527Z,3.55
2023-04-15T13:42:45.087Z,1.92
2023-04-15T13:45:13.108Z,7.78
2023-04-15T13:47:41.953Z,4.70
2023-04-15T13:50:10.965Z,2.72
2023-04-15T13:52:38.317Z,6.13
2023-04-15T13:55:18.214Z,2.42
2023-04-15T13:57:48.041Z,4.55
2023-04-15T14:00:16.075Z,4.28
2023-04-15T14:02:43.598Z,3.83
2023-04-15T14:05:11.599Z,3.63
2023-04-15T14:07:39.601Z,4.22
2023-04-15T14:10:07.443Z,4.03
2023-04-15T14:12:37.273Z,3.30
2023-04-15T14:15:12.581Z,4.88
2023-04-15T14:17:42.785Z,3.95
2023-04-15T14:20:10.705Z,3.65
2023-04-15T14:22:38.208Z,3.15
2023-04-15T14:25:06.761Z,2.33
2023-04-15T14:27:34.423Z,4.72
2023-04-15T14:30:01.763Z,4.93
2023-04-15T14:32:29.762Z,3.97
2023-04-15T14:34:59.560Z,5.95
2023-04-15T14:37:27.592Z,6.15
2023-04-15T14:39:54.950Z,3.92
2023-04-15T14:42:22.291Z,4.65
2023-04-15T14:44:50.197Z,3.95
2023-04-15T14:47:17.653Z,4.38
2023-04-15T14:49:50.393Z,3.63
2023-04-15T14:54:45.115Z,3.78
2023-04-15T14:57:12.434Z,3.28
2023-04-15T14:59:39.731Z,3.63
2023-04-15T15:02:07.406Z,2.92
2023-04-15T15:04:36.221Z,3.45
2023-04-15T15:07:04.065Z,5.85
2023-04-15T15:09:33.869Z,5.55
2023-04-15T15:12:02.603Z,4.40
2023-04-15T15:14:35.987Z,5.97
2023-04-15T15:17:04.888Z,4.18
2023-04-15T15:19:32.900Z,3.45
2023-04-15T15:22:00.324Z,4.53
2023-04-15T15:24:28.749Z,5.22
2023-04-15T15:26:57.545Z,4.60
2023-04-15T15:29:24.858Z,5.07
2023-04-15T15:31:52.327Z,7.30
2023-04-15T15:34:19.716Z,2.75
2023-04-15T15:36:47.106Z,6.10
2023-04-15T15:39:14.842Z,3.72
2023-04-15T15:41:42.295Z,3.72
2023-04-15T15:44:18.569Z,2.78
2023-04-15T15:46:46.593Z,4.88
2023-04-15T15:49:16.131Z,6.07
2023-04-15T15:51:44.650Z,4.18
2023-04-15T15:54:19.118Z,3.75
2023-04-15T15:57:04.126Z,3.58
2023-04-15T15:59:37.338Z,7.45
2023-04-15T16:02:08.846Z,4.53
2023-04-15T16:04:37.456Z,4.63
2023-04-15T16:07:07.163Z,5.63
2023-04-15T16:09:35.128Z,7.38
2023-04-15T16:12:06.385Z,6.63
2023-04-15T16:14:34.842Z,4.15
2023-04-15T16:17:02.287Z,6.78
2023-04-15T16:19:29.875Z,6.20
2023-04-15T16:21:58.993Z,7.25
2023-04-15T16:24:28.321Z,5.22
2023-04-15T16:26:58.482Z,6.70
2023-04-15T16:29:26.512Z,3.72
2023-04-15T16:31:55.023Z,7.32
2023-04-15T16:34:22.664Z,6.85
2023-04-15T16:36:50.120Z,4.97
2023-04-15T16:39:21.041Z,5.80
2023-04-15T16:41:48.491Z,7.43
2023-04-15T16:44:16.520Z,8.43
2023-04-15T16:46:43.964Z,6.43
2023-04-15T16:49:11.941Z,9.40
2023-04-15T16:51:39.860Z,8.65
2023-04-15T16:54:07.186Z,9.65
2023-04-15T16:56:35.097Z,7.85
2023-04-15T16:59:03.108Z,9.32
2023-04-15T17:01:31.472Z,5.53
2023-04-15T17:03:59.172Z,6.25
2023-04-15T17:06:26.811Z,9.32
2023-04-15T17:09:00.868Z,10.13
2023-04-15T17:11:28.580Z,9.05
2023-04-15T17:13:55.950Z,8.32
2023-04-15T17:16:23.311Z,7.53
2023-04-15T17:18:51.041Z,8.00
2023-04-15T17:21:18.558Z,5.55
2023-04-15T17:23:46.146Z,8.63
2023-04-15T17:26:13.593Z,6.70
2023-04-15T17:28:41.108Z,10.85
2023-04-15T17:31:08.606Z,6.82
2023-04-15T17:34:01.151Z,9.98
2023-04-15T17:36:23.813Z,16.45
2023-04-15T17:38:51.209Z,14.38
2023-04-15T17:41:18.572Z,12.07
2023-04-15T17:43:46.338Z,16.95
2023-04-15T17:46:13.827Z,17.05
2023-04-15T17:48:41.633Z,12.68
2023-04-15T17:51:08.999Z,17.98
2023-04-15T17:53:36.536Z,11.75
2023-04-15T17:56:04.111Z,16.33
2023-04-15T17:58:32.112Z,13.25
2023-04-15T18:00:59.473Z,15.45
2023-04-15T18:03:28.698Z,16.95
2023-04-15T18:05:56.561Z,13.40
2023-04-15T18:08:29.850Z,9.50
2023-04-15T18:10:57.152Z,12.30
2023-04-15T18:13:24.540Z,15.15
2023-04-15T18:15:52.068Z,13.38
2023-04-15T18:18:20.741Z,10.70
2023-04-15T18:20:48.195Z,11.43
2023-04-15T18:23:15.580Z,16.15
2023-04-15T18:25:43.812Z,14.48
2023-04-15T18:28:11.208Z,12.68
2023-04-15T18:30:38.662Z,16.10
2023-04-15T18:33:06.314Z,13.30
2023-04-15T18:35:35.209Z,13.52
2023-04-15T18:38:02.471Z,16.13
2023-04-15T18:40:29.769Z,14.30
2023-04-15T18:42:57.149Z,15.60
2023-04-15T18:45:24.438Z,12.90
2023-04-15T18:47:52.351Z,12.45
2023-04-15T18:50:20.069Z,12.52
2023-04-15T18:52:48.145Z,12.27
2023-04-15T18:55:18.997Z,14.85
2023-04-15T18:57:46.988Z,10.43
2023-04-15T19:00:17.490Z,12.10
2023-04-15T19:02:45.100Z,14.52
2023-04-15T19:05:12.725Z,16.08
2023-04-15T19:07:41.204Z,13.23
2023-04-15T19:10:09.039Z,10.55
2023-04-15T19:12:40.402Z,12.50
2023-04-15T19:15:08.192Z,12.45
2023-04-15T19:17:35.649Z,15.77
2023-04-15T19:20:03.094Z,9.32
2023-04-15T19:22:31.271Z,11.38
2023-04-15T19:24:58.692Z,15.52
2023-04-15T19:27:26.718Z,18.83
2023-04-15T19:29:54.181Z,14.68
2023-04-15T19:32:21.603Z,11.63
2023-04-15T19:34:49.469Z,16.85
2023-04-15T19:37:17.302Z,15.55
2023-04-15T19:39:44.768Z,11.65
2023-04-15T19:42:12.866Z,7.43
2023-04-15T19:44:42.907Z,14.10
2023-04-15T19:47:13.436Z,13.05
2023-04-15T19:49:41.283Z,13.52
2023-04-15T19:52:08.732Z,15.48
2023-04-15T19:54:36.535Z,17.65
2023-04-15T19:57:04.032Z,11.25
2023-04-15T19:59:31.374Z,11.27
2023-04-15T20:01:58.807Z,13.80
2023-04-15T20:04:26.401Z,13.13
2023-04-15T20:06:56.090Z,12.93
2023-04-15T20:09:23.398Z,13.38
2023-04-15T20:12:44.893Z,14.07
2023-04-15T20:14:38.602Z,17.42
2023-04-15T20:17:06.124Z,14.30
2023-04-15T20:19:33.539Z,13.98
2023-04-15T20:22:00.841Z,18.95
2023-04-15T20:24:28.391Z,12.48
2023-04-15T20:26:57.576Z,13.95
2023-04-15T20:29:25.046Z,12.30
2023-04-15T20:31:52.897Z,7.68
2023-04-15T20:34:20.286Z,13.25
2023-04-15T20:36:47.829Z,13.15
2023-04-15T20:39:15.233Z,15.82
2023-04-15T20:41:42.745Z,13.75
2023-04-15T20:44:12.298Z,9.00
2023-04-15T20:46:39.640Z,14.07
2023-04-15T20:49:07.281Z,11.48
2023-04-15T20:51:37.722Z,19.80
2023-04-15T20:54:06.257Z,12.82
2023-04-15T20:56:33.734Z,9.63
2023-04-15T20:59:01.677Z,10.65
2023-04-15T21:01:29.068Z,9.63
2023-04-15T21:03:56.590Z,13.10
2023-04-15T21:06:23.934Z,9.88
2023-04-15T21:08:52.581Z,14.63
2023-04-15T21:11:38.827Z,11.48
2023-04-15T21:14:11.080Z,6.93
2023-04-15T21:16:38.503Z,13.20
2023-04-15T21:19:06.166Z,15.57
2023-04-15T21:21:33.650Z,16.83
2023-04-15T21:24:01.355Z,11.07
2023-04-15T21:26:28.847Z,9.77
2023-04-15T21:28:56.432Z,17.55
2023-04-15T21:31:23.988Z,11.73
2023-04-15T21:33:51.361Z,7.45
2023-04-15T21:36:18.834Z,15.27
2023-04-15T21:38:46.158Z,17.10
2023-04-15T21:41:13.510Z,11.02
2023-04-15T21:43:40.809Z,10.82
2023-04-15T21:46:23.124Z,16.75
2023-04-15T21:48:54.972Z,10.55
2023-04-15T21:51:22.590Z,9.13
2023-04-15T21:53:50.074Z,7.47
2023-04-15T21:56:17.403Z,9.98
2023-04-15T21:58:44.778Z,6.80
2023-04-15T22:01:12.131Z,5.95
2023-04-15T22:03:39.760Z,9.38
2023-04-15T22:06:07.267Z,12.38
2023-04-15T22:08:41.751Z,10.13
2023-04-15T22:11:22.937Z,11.35
2023-04-15T22:13:50.597Z,7.57
2023-04-15T22:16:18.041Z,8.63
2023-04-15T22:18:45.478Z,7.38
2023-04-15T22:21:14.155Z,10.18
2023-04-15T22:23:41.692Z,8.55
2023-04-15T22:26:09.037Z,8.05
2023-04-15T22:28:36.414Z,9.32
2023-04-15T22:31:04.013Z,9.45
2023-04-15T22:33:31.388Z,7.07
2023-04-15T22:35:58.667Z,8.48
2023-04-15T22:38:26.047Z,10.20
2023-04-15T22:40:54.008Z,7.65
2023-04-15T22:43:22.247Z,8.63
2023-04-15T22:45:56.667Z,10.45
2023-04-15T22:48:24.040Z,14.55
2023-04-15T22:50:51.400Z,14.23
2023-04-15T22:53:18.715Z,8.32
2023-04-15T22:55:47.425Z,13.00
2023-04-15T22:58:15.402Z,13.10
2023-04-15T23:00:42.872Z,14.25
2023-04-15T23:03:10.337Z,8.50
2023-04-15T23:05:40.080Z,7.95
2023-04-15T23:08:07.833Z,12.80
2023-04-15T23:10:35.480Z,9.27
2023-04-15T23:13:02.913Z,9.07
2023-04-15T23:15:30.332Z,11.45
2023-04-15T23:17:57.688Z,8.35
2023-04-15T23:20:25.054Z,10.32
2023-04-15T23:22:52.365Z,14.82
2023-04-15T23:25:22.290Z,9.27
2023-04-15T23:27:49.660Z,11.63
2023-04-15T23:30:17.064Z,10.93
2023-04-15T23:32:44.442Z,15.63
2023-04-15T23:35:11.957Z,10.13
2023-04-15T23:37:39.291Z,9.55
2023-04-15T23:40:07.445Z,9.73
2023-04-15T23:42:34.790Z,11.93
2023-04-15T23:45:02.194Z,14.35
2023-04-15T23:47:29.509Z,10.98
2023-04-15T23:49:56.791Z,12.52
2023-04-15T23:52:24.308Z,16.83
2023-04-15T23:54:51.909Z,17.50
2023-04-15T23:57:20.704Z,20.20
2023-04-15T23:59:48.021Z,21.88
